Time;durP1;ratioP1;P1;durP2;ratioP2;P2;SDS_P1;SDS_P2;PMS_P1;PMS_P2;Temp;Humidity;BMP_temperature;BMP_pressure;BME280_temperature;BME280_humidity;BME280_pressure;Samples;Min_cycle;Max_cycle;Signal;HPM_P1;HPM_P2
2022/10/30 00:00:29;;;;;;;26.05;11.45;;;;;;;21.94;55.61;101692.72;5074149;28;20041;-74
2022/10/30 00:02:54;;;;;;;25.38;10.30;;;;;;;21.93;55.78;101698.50;5073477;28;20468;-73
2022/10/30 00:05:20;;;;;;;23.30;10.95;;;;;;;21.83;56.17;101705.66;5074692;28;20127;-73
2022/10/30 00:07:47;;;;;;;21.80;10.63;;;;;;;21.83;55.51;101702.09;5073978;28;20041;-72
2022/10/30 00:10:13;;;;;;;28.38;11.85;;;;;;;21.79;55.75;101696.31;5073560;28;20040;-72
2022/10/30 00:12:38;;;;;;;27.05;12.63;;;;;;;21.75;55.96;101694.41;5073682;28;20037;-72
2022/10/30 00:15:04;;;;;;;27.48;11.23;;;;;;;21.75;56.27;101705.38;5073799;28;20476;-72
2022/10/30 00:17:30;;;;;;;23.20;10.55;;;;;;;21.70;56.04;101697.97;5073692;28;20028;-72
2022/10/30 00:19:55;;;;;;;21.13;10.80;;;;;;;21.71;55.81;101691.44;5073940;28;20353;-72
2022/10/30 00:22:20;;;;;;;19.83;10.50;;;;;;;21.61;55.97;101687.88;5073654;28;20048;-74
2022/10/30 00:24:46;;;;;;;27.65;11.65;;;;;;;21.62;56.12;101690.34;5073462;28;20033;-72
2022/10/30 00:27:11;;;;;;;27.02;11.13;;;;;;;21.59;56.34;101696.38;5073369;28;20527;-73
2022/10/30 00:29:36;;;;;;;19.35;10.77;;;;;;;21.58;56.29;101699.41;5073367;28;20028;-72
2022/10/30 00:32:02;;;;;;;17.60;10.07;;;;;;;21.56;55.68;101696.91;5073846;28;20037;-72
2022/10/30 00:34:27;;;;;;;21.98;10.15;;;;;;;21.49;56.31;101687.38;5073201;28;20039;-72
2022/10/30 00:36:53;;;;;;;22.92;11.35;;;;;;;21.45;56.28;101689.84;5089586;28;20032;-72
2022/10/30 00:39:18;;;;;;;23.88;10.52;;;;;;;21.40;56.24;101691.78;5092804;28;20039;-72
2022/10/30 00:41:44;;;;;;;27.08;11.18;;;;;;;21.45;56.35;101694.47;5091279;28;20044;-72
2022/10/30 00:44:42;;;;;;;22.65;10.48;;;;;;;21.32;56.45;101695.06;5092930;28;20043;-72
2022/10/30 00:47:24;;;;;;;38.42;12.30;;;;;;;21.43;56.14;101689.28;5092674;28;20055;-73
2022/10/30 00:50:12;;;;;;;30.45;11.38;;;;;;;21.39;56.16;101701.88;5092071;28;20035;-72
2022/10/30 00:53:01;;;;;;;27.17;12.65;;;;;;;21.53;55.95;101691.19;5092177;28;20111;-72
2022/10/30 00:55:42;;;;;;;22.20;11.10;;;;;;;21.42;55.88;101690.41;5092078;28;20507;-72
2022/10/30 00:58:11;;;;;;;25.77;11.32;;;;;;;21.39;56.26;101690.13;5090842;28;20036;-73
2022/10/30 01:00:40;;;;;;;23.05;11.10;;;;;;;21.45;56.43;101691.75;5092096;28;20036;-73
2022/10/30 01:03:06;;;;;;;22.85;12.35;;;;;;;21.51;56.18;101687.91;5092200;28;20044;-72
2022/10/30 01:05:33;;;;;;;26.90;11.52;;;;;;;21.50;56.21;101689.81;5093294;28;20035;-72
2022/10/30 01:07:58;;;;;;;31.08;12.45;;;;;;;21.43;56.49;101689.28;5093549;28;20028;-72
2022/10/30 01:10:24;;;;;;;34.67;12.73;;;;;;;21.40;56.24;101683.56;5093485;28;20387;-72
2022/10/30 01:12:52;;;;;;;21.25;12.43;;;;;;;21.35;56.44;101678.91;5090753;28;20487;-72
2022/10/30 01:15:23;;;;;;;27.50;10.77;;;;;;;21.35;56.45;101686.28;5072932;28;20162;-72
2022/10/30 01:17:58;;;;;;;17.35;12.30;;;;;;;21.38;56.30;101692.06;5073133;28;20054;-72
2022/10/30 01:20:51;;;;;;;21.15;10.82;;;;;;;21.32;56.23;101689.59;5073014;28;20532;-72
2022/10/30 01:23:35;;;;;;;25.17;11.93;;;;;;;21.23;56.27;101688.53;5072696;28;20036;-73
2022/10/30 01:26:10;;;;;;;32.05;11.43;;;;;;;21.17;55.96;101693.16;5072508;28;20024;-71
2022/10/30 01:28:45;;;;;;;23.85;12.60;;;;;;;21.17;56.33;101692.34;5073007;28;20503;-72
2022/10/30 01:31:29;;;;;;;22.17;11.60;;;;;;;21.07;56.38;101692.34;5072259;28;20500;-72
2022/10/30 01:34:17;;;;;;;24.10;12.70;;;;;;;21.05;56.14;101698.06;5072775;28;20032;-73
2022/10/30 01:36:48;;;;;;;22.58;11.45;;;;;;;21.04;56.29;101699.19;5087876;28;20016;-72
2022/10/30 01:39:21;;;;;;;23.00;10.95;;;;;;;20.98;56.72;101695.59;5092909;28;20028;-73
2022/10/30 01:41:46;;;;;;;18.08;10.65;;;;;;;21.01;56.54;101699.75;5092446;28;20035;-73
2022/10/30 01:44:17;;;;;;;24.85;13.07;;;;;;;20.97;56.37;101693.16;5092930;28;20460;-71
2022/10/30 01:47:07;;;;;;;28.52;12.48;;;;;;;20.93;56.24;101698.31;5092623;28;20043;-72
2022/10/30 01:49:33;;;;;;;28.05;12.60;;;;;;;20.91;56.61;101697.78;5089589;28;20119;-72
2022/10/30 01:52:07;;;;;;;28.77;12.93;;;;;;;20.77;57.40;101693.13;5072296;28;20103;-72
2022/10/30 01:54:52;;;;;;;26.48;13.23;;;;;;;20.83;57.15;101687.38;5072289;28;20050;-73
2022/10/30 01:57:45;;;;;;;24.35;13.05;;;;;;;20.90;56.54;101689.84;5072349;28;20036;-73
2022/10/30 02:00:13;;;;;;;29.65;12.75;;;;;;;21.01;56.74;101686.09;5072052;28;20048;-72
2022/10/30 02:02:40;;;;;;;30.30;13.02;;;;;;;20.80;57.69;101684.38;5071378;28;20067;-71
2022/10/30 02:05:08;;;;;;;33.75;12.30;;;;;;;20.97;57.02;101687.69;5072104;28;20143;-73
2022/10/30 02:07:35;;;;;;;25.48;12.68;;;;;;;21.06;57.21;101688.78;5071744;28;20039;-72
2022/10/30 02:10:01;;;;;;;24.70;13.35;;;;;;;20.98;57.13;101686.59;5081965;28;20036;-71
2022/10/30 02:12:27;;;;;;;24.77;11.20;;;;;;;20.64;58.43;101691.75;5091232;28;20074;-71
2022/10/30 02:14:56;;;;;;;19.90;11.85;;;;;;;20.91;57.77;101689.56;5090524;28;20613;-72
2022/10/30 02:17:22;;;;;;;24.90;12.00;;;;;;;20.81;58.46;101696.97;5092375;28;20115;-73
2022/10/30 02:19:48;;;;;;;25.80;12.93;;;;;;;21.07;56.85;101701.34;5091290;28;20052;-73
2022/10/30 02:22:13;;;;;;;25.27;11.00;;;;;;;21.20;56.37;101708.19;5091859;28;20032;-73
2022/10/30 02:24:39;;;;;;;32.92;12.77;;;;;;;21.14;56.68;101712.03;5091601;28;20067;-72
2022/10/30 02:27:04;;;;;;;22.23;11.10;;;;;;;21.03;57.08;101711.19;5091401;28;20093;-72
2022/10/30 02:29:29;;;;;;;27.50;11.77;;;;;;;20.97;56.88;101710.34;5092039;28;20044;-73
2022/10/30 02:31:55;;;;;;;25.08;12.18;;;;;;;20.96;56.90;101710.63;5090110;28;20434;-72
2022/10/30 02:34:20;;;;;;;21.63;10.30;;;;;;;21.17;56.30;101717.75;5091640;28;20024;-72
2022/10/30 02:36:46;;;;;;;32.47;12.48;;;;;;;21.09;56.00;101714.78;5076183;28;20110;-72
2022/10/30 02:39:11;;;;;;;28.08;11.00;;;;;;;21.04;56.11;101714.75;5071818;28;20090;-72
2022/10/30 02:41:37;;;;;;;23.63;11.77;;;;;;;21.06;55.92;101724.34;5088455;28;20078;-72
2022/10/30 02:44:03;;;;;;;24.40;10.48;;;;;;;20.98;56.07;101724.84;5092090;28;20023;-72
2022/10/30 02:46:28;;;;;;;17.90;10.35;;;;;;;20.92;55.88;101717.72;5091990;28;20231;-73
2022/10/30 02:48:53;;;;;;;20.27;11.27;;;;;;;20.81;56.10;101727.03;5091700;28;20620;-73
2022/10/30 02:51:19;;;;;;;22.65;11.50;;;;;;;20.83;56.43;101724.84;5086081;28;20102;-73
2022/10/30 02:53:46;;;;;;;24.42;11.88;;;;;;;20.96;55.90;101716.09;5071179;28;20038;-73
2022/10/30 02:56:12;;;;;;;17.55;11.13;;;;;;;20.93;56.01;101714.72;5071655;28;20036;-72
2022/10/30 02:58:38;;;;;;;23.73;11.68;;;;;;;20.83;55.94;101724.84;5071189;28;20047;-72
2022/10/30 03:01:09;;;;;;;21.50;11.27;;;;;;;20.80;56.14;101711.69;5070908;28;20039;-73
2022/10/30 03:03:35;;;;;;;21.73;11.93;;;;;;;20.68;57.00;101711.97;5071191;28;20033;-73
2022/10/30 03:06:02;;;;;;;22.83;12.93;;;;;;;20.71;56.62;101713.34;5082671;28;20039;-73
2022/10/30 03:08:27;;;;;;;23.48;12.55;;;;;;;20.71;56.33;101718.81;5093941;28;20019;-73
2022/10/30 03:11:02;;;;;;;31.17;12.23;;;;;;;20.57;56.85;101720.41;5095408;28;20028;-73
2022/10/30 03:13:29;;;;;;;28.70;12.80;;;;;;;20.65;56.87;101725.34;5095201;28;20437;-73
2022/10/30 03:16:06;;;;;;;29.60;12.20;;;;;;;20.79;56.28;101735.50;5094728;28;20036;-73
2022/10/30 03:18:32;;;;;;;26.48;12.43;;;;;;;20.75;56.66;101730.84;5094900;28;20569;-72
2022/10/30 03:21:01;;;;;;;28.98;14.13;;;;;;;20.70;57.07;101737.09;5095225;28;20055;-72
2022/10/30 03:23:27;;;;;;;21.00;12.45;;;;;;;20.75;56.28;101737.13;5094993;28;20035;-72
2022/10/30 03:25:54;;;;;;;21.30;11.30;;;;;;;20.76;56.29;101733.28;5095054;28;20052;-73
2022/10/30 03:28:24;;;;;;;29.38;12.65;;;;;;;20.63;56.78;101735.72;5094965;28;20123;-72
2022/10/30 03:30:51;;;;;;;28.77;14.52;;;;;;;20.54;56.93;101742.81;5095093;28;20036;-72
2022/10/30 03:33:16;;;;;;;20.42;10.70;;;;;;;20.61;56.62;101736.00;5094903;28;20043;-73
2022/10/30 03:35:43;;;;;;;27.63;13.18;;;;;;;20.59;56.64;101740.09;5088191;28;20029;-72
2022/10/30 03:38:10;;;;;;;18.30;10.82;;;;;;;20.53;56.75;101739.25;5074882;28;20052;-73
2022/10/30 03:40:36;;;;;;;27.98;11.90;;;;;;;20.43;56.79;101741.94;5083731;28;20106;-72
2022/10/30 03:43:02;;;;;;;29.75;12.00;;;;;;;20.48;56.62;101749.34;5074183;28;20438;-73
2022/10/30 03:45:27;;;;;;;21.17;12.20;;;;;;;20.39;57.39;101748.22;5074505;28;20041;-72
2022/10/30 03:47:52;;;;;;;25.27;13.43;;;;;;;20.56;56.98;101754.28;5074202;28;20029;-72
2022/10/30 03:50:18;;;;;;;28.73;14.20;;;;;;;20.46;57.18;101757.78;5083497;28;20081;-72
2022/10/30 03:52:43;;;;;;;22.67;12.05;;;;;;;20.44;57.15;101750.97;5094713;28;20492;-72
2022/10/30 03:55:09;;;;;;;40.53;12.77;;;;;;;20.47;57.02;101753.16;5094201;28;20040;-72
2022/10/30 03:57:37;;;;;;;19.10;11.60;;;;;;;20.45;56.63;101745.25;5093948;28;20036;-73
2022/10/30 04:00:04;;;;;;;24.08;12.30;;;;;;;20.47;56.62;101734.03;5094069;28;20044;-73
2022/10/30 04:02:31;;;;;;;26.38;12.07;;;;;;;20.38;56.80;101741.94;5089892;28;20048;-72
2022/10/30 04:04:56;;;;;;;21.70;11.63;;;;;;;20.30;56.57;101742.47;5094197;28;20028;-74
2022/10/30 04:07:22;;;;;;;25.30;12.10;;;;;;;20.33;56.74;101743.81;5093648;28;20568;-72
2022/10/30 04:09:47;;;;;;;21.75;12.35;;;;;;;20.31;56.66;101755.00;5093565;28;20039;-72
2022/10/30 04:12:13;;;;;;;25.67;12.10;;;;;;;20.08;57.87;101755.44;5093422;28;20383;-72
2022/10/30 04:14:38;;;;;;;21.70;12.63;;;;;;;20.30;57.46;101761.56;5093363;28;20043;-72
2022/10/30 04:17:05;;;;;;;23.92;13.35;;;;;;;20.38;57.09;101762.97;5093877;28;20499;-72
2022/10/30 04:19:31;;;;;;;20.23;11.88;;;;;;;20.32;57.24;101764.03;5093767;28;20028;-73
2022/10/30 04:21:56;;;;;;;24.58;11.90;;;;;;;20.34;56.84;101762.69;5093749;28;20495;-73
2022/10/30 04:24:22;;;;;;;26.02;12.35;;;;;;;20.34;56.69;101754.50;5094018;28;20035;-73
2022/10/30 04:26:47;;;;;;;26.42;12.07;;;;;;;20.33;56.78;101752.84;5093480;28;20048;-72
2022/10/30 04:29:13;;;;;;;23.98;13.20;;;;;;;20.22;57.35;101748.44;5094234;28;20023;-72
2022/10/30 04:31:38;;;;;;;26.85;12.95;;;;;;;20.30;56.75;101755.28;5093755;28;20032;-72
2022/10/30 04:34:03;;;;;;;19.45;11.30;;;;;;;20.20;56.88;101749.78;5093572;28;20039;-72
2022/10/30 04:36:31;;;;;;;23.83;12.38;;;;;;;20.17;56.78;101743.75;5082212;28;20040;-73
2022/10/30 04:38:57;;;;;;;21.13;11.70;;;;;;;20.12;57.14;101756.53;5073560;28;20472;-72
2022/10/30 04:41:22;;;;;;;27.20;11.90;;;;;;;20.03;56.77;101749.94;5074113;28;20037;-72
2022/10/30 04:43:49;;;;;;;23.25;11.90;;;;;;;20.02;56.93;101751.88;5071677;28;20041;-73
2022/10/30 04:46:16;;;;;;;22.92;11.80;;;;;;;20.00;57.37;101756.78;5073376;28;20094;-73
2022/10/30 04:48:41;;;;;;;21.30;12.10;;;;;;;19.99;57.38;101752.38;5073311;28;20051;-73
2022/10/30 04:51:07;;;;;;;24.83;12.82;;;;;;;19.91;57.58;101752.88;5088427;28;20040;-73
2022/10/30 04:53:33;;;;;;;22.08;12.10;;;;;;;20.05;56.98;101755.94;5093528;28;20020;-72
2022/10/30 04:55:58;;;;;;;27.75;13.93;;;;;;;20.08;56.71;101737.16;5093713;28;20088;-71
2022/10/30 04:58:24;;;;;;;21.92;12.52;;;;;;;20.02;56.85;101738.22;5092937;28;20043;-73
2022/10/30 05:00:49;;;;;;;24.33;12.48;;;;;;;19.98;56.99;101748.03;5093119;28;20043;-73
2022/10/30 05:03:20;;;;;;;31.67;13.10;;;;;;;19.94;56.74;101746.09;5092840;28;20604;-73
2022/10/30 05:05:47;;;;;;;25.30;13.07;;;;;;;19.92;56.99;101737.34;5092962;28;20090;-72
2022/10/30 05:08:13;;;;;;;19.20;11.70;;;;;;;19.91;56.82;101733.00;5093839;28;20027;-72
2022/10/30 05:10:39;;;;;;;25.85;12.55;;;;;;;19.90;57.14;101729.44;5091462;28;20186;-73
2022/10/30 05:13:05;;;;;;;32.20;14.82;;;;;;;19.89;57.03;101744.13;5092577;28;20040;-71
2022/10/30 05:15:30;;;;;;;22.45;12.75;;;;;;;19.91;56.94;101731.06;5088369;28;20132;-72
2022/10/30 05:17:55;;;;;;;25.08;14.30;;;;;;;19.93;56.90;101731.63;5072632;28;20032;-71
2022/10/30 05:20:21;;;;;;;24.67;13.10;;;;;;;19.84;57.54;101729.66;5071118;28;20036;-73
2022/10/30 05:22:57;;;;;;;26.33;15.23;;;;;;;19.94;56.75;101730.53;5072261;28;20106;-73
2022/10/30 05:25:23;;;;;;;26.63;13.57;;;;;;;19.87;57.15;101729.16;5071976;28;20458;-74
2022/10/30 05:27:49;;;;;;;36.17;15.20;;;;;;;19.88;57.61;101736.22;5071318;28;20032;-72
2022/10/30 05:30:14;;;;;;;24.40;12.68;;;;;;;19.87;57.54;101727.22;5072012;28;20059;-73
2022/10/30 05:32:40;;;;;;;23.38;13.60;;;;;;;19.90;57.53;101721.25;5076874;28;20205;-74
2022/10/30 05:35:05;;;;;;;22.45;13.80;;;;;;;19.68;58.64;101719.75;5073007;28;20032;-73
2022/10/30 05:37:31;;;;;;;34.65;16.25;;;;;;;19.95;57.61;101718.53;5071127;28;20549;-72
2022/10/30 05:39:56;;;;;;;21.92;13.95;;;;;;;19.82;57.95;101718.19;5072292;28;20499;-72
2022/10/30 05:42:22;;;;;;;25.15;14.63;;;;;;;19.93;57.97;101733.53;5072111;28;20056;-72
2022/10/30 05:44:47;;;;;;;32.20;14.55;;;;;;;19.91;57.40;101730.25;5072298;28;20375;-73
2022/10/30 05:47:12;;;;;;;27.95;14.27;;;;;;;19.95;57.74;101729.44;5072664;28;20028;-72
2022/10/30 05:49:38;;;;;;;23.27;13.13;;;;;;;19.66;58.98;101732.81;5075515;28;20032;-72
2022/10/30 05:52:03;;;;;;;27.95;14.80;;;;;;;19.69;59.39;101745.94;5092601;28;20031;-72
2022/10/30 05:54:29;;;;;;;29.58;16.20;;;;;;;19.79;59.44;101751.47;5092361;28;20040;-74
2022/10/30 05:56:56;;;;;;;39.53;15.65;;;;;;;19.79;58.58;101744.09;5092160;28;20079;-72
2022/10/30 05:59:21;;;;;;;29.48;16.48;;;;;;;18.74;62.25;101749.50;5092398;28;20046;-73
2022/10/30 06:01:46;;;;;;;29.40;15.05;;;;;;;19.60;60.07;101755.69;5091088;28;20044;-72
2022/10/30 06:04:12;;;;;;;32.55;13.95;;;;;;;19.89;58.53;101759.72;5091345;28;20035;-74
2022/10/30 06:06:37;;;;;;;27.98;15.55;;;;;;;19.89;58.75;101754.25;5091963;28;20048;-72
2022/10/30 06:09:03;;;;;;;28.70;16.35;;;;;;;19.83;58.94;101749.84;5092048;28;20032;-72
2022/10/30 06:11:28;;;;;;;36.50;16.33;;;;;;;19.86;58.53;101750.13;5092288;28;20467;-73
2022/10/30 06:13:53;;;;;;;30.67;16.10;;;;;;;19.90;58.23;101753.97;5092132;28;20086;-72
2022/10/30 06:16:19;;;;;;;28.95;15.90;;;;;;;19.92;58.21;101750.97;5079607;28;20469;-72
2022/10/30 06:18:44;;;;;;;32.78;16.35;;;;;;;19.83;58.39;101756.09;5071123;28;20025;-73
2022/10/30 06:21:09;;;;;;;26.38;14.93;;;;;;;19.88;58.00;101764.34;5070927;28;20037;-72
2022/10/30 06:23:35;;;;;;;28.13;14.82;;;;;;;19.86;57.78;101763.78;5070549;28;20039;-73
2022/10/30 06:26:00;;;;;;;29.00;15.32;;;;;;;19.81;58.49;101773.84;5071780;28;20043;-73
2022/10/30 06:28:26;;;;;;;25.60;14.73;;;;;;;19.86;58.24;101769.25;5075527;28;20036;-72
2022/10/30 06:30:53;;;;;;;32.58;15.43;;;;;;;19.61;59.36;101771.81;5071082;28;20047;-72
2022/10/30 06:33:18;;;;;;;30.40;15.13;;;;;;;19.65;58.96;101770.19;5071293;28;20059;-73
2022/10/30 06:35:43;;;;;;;40.45;15.18;;;;;;;19.77;58.45;101759.09;5071391;28;20728;-72
2022/10/30 06:38:10;;;;;;;32.45;15.75;;;;;;;19.83;57.97;101755.31;5071649;28;20020;-72
2022/10/30 06:40:36;;;;;;;33.08;15.35;;;;;;;19.86;58.28;101755.59;5074471;28;20048;-73
2022/10/30 06:43:01;;;;;;;26.88;15.40;;;;;;;19.92;58.10;101751.81;5074652;28;20052;-73
2022/10/30 06:45:27;;;;;;;30.55;15.55;;;;;;;19.89;58.02;101751.53;5075711;28;20036;-73
2022/10/30 06:47:52;;;;;;;33.65;16.13;;;;;;;19.98;57.96;101742.56;5073939;28;20029;-76
2022/10/30 06:50:19;;;;;;;31.60;15.63;;;;;;;19.92;58.40;101751.81;5081541;28;20105;-71
2022/10/30 06:52:45;;;;;;;30.42;16.45;;;;;;;19.96;57.73;101747.47;5082893;28;20024;-75
2022/10/30 06:55:11;;;;;;;38.75;18.35;;;;;;;19.98;57.91;101745.31;5089565;28;20032;-74
2022/10/30 06:57:37;;;;;;;27.48;15.57;;;;;;;19.95;58.37;101739.56;5089066;28;20028;-72
2022/10/30 07:00:04;;;;;;;28.88;15.35;;;;;;;19.96;58.29;101733.81;5080451;28;20060;-73
2022/10/30 07:02:30;;;;;;;27.88;15.23;;;;;;;19.99;58.06;101743.38;5083531;28;20052;-75
2022/10/30 07:04:55;;;;;;;28.55;15.73;;;;;;;20.14;58.18;101733.38;5085655;28;20396;-72
2022/10/30 07:07:20;;;;;;;25.27;16.13;;;;;;;20.05;58.24;101731.38;5091964;28;20138;-72
2022/10/30 07:09:46;;;;;;;35.15;16.75;;;;;;;20.18;58.37;101739.09;5090384;28;20044;-72
2022/10/30 07:12:11;;;;;;;31.45;17.13;;;;;;;19.81;60.11;101744.63;5091248;28;20028;-71
2022/10/30 07:14:37;;;;;;;35.90;19.38;;;;;;;20.24;58.59;101738.06;5090419;28;20375;-73
2022/10/30 07:17:03;;;;;;;25.30;15.15;;;;;;;20.32;57.92;101739.47;5091335;28;20028;-72
2022/10/30 07:19:28;;;;;;;32.28;15.05;;;;;;;20.31;58.35;101746.81;5091235;28;20328;-72
2022/10/30 07:21:53;;;;;;;29.45;15.98;;;;;;;20.28;58.07;101752.00;5093934;28;20032;-72
2022/10/30 07:24:19;;;;;;;37.63;15.88;;;;;;;20.30;58.14;101744.38;5086253;28;20558;-71
2022/10/30 07:26:44;;;;;;;25.80;15.48;;;;;;;20.06;58.30;101750.25;5091250;28;20051;-74
2022/10/30 07:29:10;;;;;;;32.42;14.93;;;;;;;20.12;58.50;101749.19;5087793;28;20082;-72
2022/10/30 07:31:35;;;;;;;24.08;14.43;;;;;;;20.25;58.33;101756.06;5086605;28;20055;-72
2022/10/30 07:34:02;;;;;;;28.38;14.18;;;;;;;20.29;57.81;101750.91;5092527;28;20031;-71
2022/10/30 07:36:27;;;;;;;25.25;14.70;;;;;;;20.26;58.12;101762.38;5081266;28;20122;-70
2022/10/30 07:38:52;;;;;;;35.97;17.10;;;;;;;20.30;57.94;101766.22;5092094;28;20058;-72
2022/10/30 07:41:19;;;;;;;36.63;16.95;;;;;;;20.42;58.22;101775.00;5089959;28;20032;-69
2022/10/30 07:43:44;;;;;;;22.30;14.80;;;;;;;20.45;57.94;101768.97;5093145;28;20655;-70
2022/10/30 07:46:10;;;;;;;25.42;15.63;;;;;;;20.55;57.71;101767.13;5078814;28;20029;-71
2022/10/30 07:48:36;;;;;;;21.95;15.13;;;;;;;20.24;58.64;101764.53;5088333;28;20040;-72
2022/10/30 07:51:01;;;;;;;32.55;16.35;;;;;;;20.52;57.84;101766.84;5087631;28;20043;-71
2022/10/30 07:53:27;;;;;;;29.80;15.82;;;;;;;20.13;59.67;101764.47;5092836;28;20032;-69
2022/10/30 07:55:52;;;;;;;28.35;15.68;;;;;;;20.53;58.63;101769.28;5085324;28;20027;-73
2022/10/30 07:58:18;;;;;;;34.28;15.63;;;;;;;20.50;58.00;101766.28;5091924;28;20116;-71
2022/10/30 08:00:43;;;;;;;31.02;15.52;;;;;;;20.61;58.33;101774.25;5092210;28;20035;-71
2022/10/30 08:03:10;;;;;;;27.27;16.45;;;;;;;20.59;58.01;101770.13;5088915;28;20174;-72
2022/10/30 08:05:36;;;;;;;28.38;16.65;;;;;;;20.60;58.51;101761.66;5092435;28;20388;-71
2022/10/30 08:08:01;;;;;;;33.55;15.93;;;;;;;20.82;57.88;101753.22;5093050;28;20035;-70
2022/10/30 08:10:27;;;;;;;23.45;15.50;;;;;;;21.08;57.34;101763.16;5091306;28;20106;-72
2022/10/30 08:12:52;;;;;;;32.38;16.85;;;;;;;21.04;57.54;101753.84;5088974;28;20080;-71
2022/10/30 08:15:18;;;;;;;37.42;18.45;;;;;;;21.13;57.53;101760.41;5081520;28;20032;-71
2022/10/30 08:17:45;;;;;;;29.45;17.02;;;;;;;21.23;57.26;101754.13;5088961;28;21617;-71
2022/10/30 08:20:13;;;;;;;32.03;16.23;;;;;;;21.14;57.60;101751.13;5087027;28;20036;-70
2022/10/30 08:22:46;;;;;;;26.92;15.00;;;;;;;21.16;57.48;101757.13;5085930;28;20503;-71
2022/10/30 08:25:11;;;;;;;25.92;16.05;;;;;;;21.19;57.48;101751.09;5083541;28;20033;-71
2022/10/30 08:27:36;;;;;;;36.92;17.25;;;;;;;21.24;57.23;101753.88;5087160;28;20105;-71
2022/10/30 08:30:02;;;;;;;34.58;15.27;;;;;;;20.92;58.19;101745.88;5084489;28;20040;-71
2022/10/30 08:32:28;;;;;;;26.17;16.25;;;;;;;21.26;58.01;101740.75;5086936;28;20028;-71
2022/10/30 08:34:53;;;;;;;36.55;17.70;;;;;;;21.51;57.11;101745.34;5085012;28;20085;-71
2022/10/30 08:37:18;;;;;;;34.33;16.77;;;;;;;21.39;57.63;101753.84;5087426;28;20028;-71
2022/10/30 08:39:44;;;;;;;32.20;16.80;;;;;;;21.21;58.29;101748.91;5086979;28;20040;-72
2022/10/30 08:42:09;;;;;;;36.55;15.77;;;;;;;21.79;56.78;101748.31;5082834;28;20040;-71
2022/10/30 08:44:34;;;;;;;31.13;17.77;;;;;;;21.83;56.50;101752.19;5082905;28;20040;-69
2022/10/30 08:47:00;;;;;;;31.05;15.52;;;;;;;22.01;56.38;101758.97;5086925;28;20039;-72
2022/10/30 08:49:25;;;;;;;31.58;15.30;;;;;;;22.11;56.35;101750.69;5085195;28;20035;-70
2022/10/30 08:51:51;;;;;;;29.00;15.45;;;;;;;21.75;57.21;101749.16;5086428;28;20550;-70
2022/10/30 08:54:16;;;;;;;26.98;15.27;;;;;;;22.06;56.54;101758.94;5086655;28;20470;-71
2022/10/30 08:56:42;;;;;;;25.35;15.55;;;;;;;22.28;56.06;101753.94;5086845;28;20046;-70
2022/10/30 08:59:07;;;;;;;28.65;15.27;;;;;;;22.37;55.71;101751.41;5086906;28;20032;-70
2022/10/30 09:01:32;;;;;;;27.95;15.95;;;;;;;22.16;56.04;101752.59;5085767;28;20052;-72
2022/10/30 09:03:58;;;;;;;30.67;14.43;;;;;;;22.39;55.50;101752.75;5086237;28;20395;-71
2022/10/30 09:06:23;;;;;;;30.17;15.23;;;;;;;22.53;55.24;101750.22;5083511;28;20028;-70
2022/10/30 09:08:48;;;;;;;33.38;14.70;;;;;;;22.67;55.26;101754.84;5085351;28;20411;-68
2022/10/30 09:11:16;;;;;;;33.05;14.38;;;;;;;22.78;55.14;101752.84;5086270;28;20023;-70
2022/10/30 09:13:41;;;;;;;28.30;16.55;;;;;;;22.62;55.08;101754.06;5085556;28;20032;-71
2022/10/30 09:16:07;;;;;;;26.95;14.88;;;;;;;22.26;56.78;101750.66;5084455;28;20090;-68
2022/10/30 09:18:32;;;;;;;25.48;15.15;;;;;;;22.42;55.46;101746.75;5076042;28;20142;-73
2022/10/30 09:20:57;;;;;;;32.75;13.90;;;;;;;22.95;54.43;101753.28;5073916;28;20081;-70
2022/10/30 09:23:23;;;;;;;35.85;16.38;;;;;;;22.08;56.55;101748.53;5071903;28;20039;-70
2022/10/30 09:25:48;;;;;;;31.45;13.75;;;;;;;23.08;54.40;101749.88;5076039;28;20039;-70
2022/10/30 09:28:14;;;;;;;31.73;13.30;;;;;;;23.09;54.13;101748.81;5076405;28;20073;-70
2022/10/30 09:30:39;;;;;;;26.60;13.85;;;;;;;23.36;53.86;101751.06;5087771;28;20698;-70
2022/10/30 09:33:04;;;;;;;26.67;13.90;;;;;;;23.08;54.79;101757.28;5083306;28;20043;-71
2022/10/30 09:35:31;;;;;;;33.15;13.57;;;;;;;23.50;53.79;101752.03;5078736;28;20040;-71
2022/10/30 09:37:56;;;;;;;32.92;13.85;;;;;;;23.61;53.75;101745.31;5078745;28;20059;-70
2022/10/30 09:40:43;;;;;;;26.30;14.45;;;;;;;23.73;52.97;101751.25;5077746;28;20572;-68
2022/10/30 09:43:43;;;;;;;28.73;13.82;;;;;;;23.63;53.45;101756.81;5074859;28;20032;-72
2022/10/30 09:46:29;;;;;;;28.77;14.70;;;;;;;23.72;53.82;101766.09;5074866;28;20049;-70
2022/10/30 09:49:03;;;;;;;23.58;14.13;;;;;;;23.43;54.94;101768.81;5069433;28;20182;-72
2022/10/30 09:51:35;;;;;;;25.40;13.52;;;;;;;23.94;53.91;101754.59;5075751;28;20060;-70
2022/10/30 09:54:14;;;;;;;28.70;14.65;;;;;;;24.08;53.30;101750.88;5071614;28;20060;-71
2022/10/30 09:56:50;;;;;;;22.40;14.15;;;;;;;24.21;53.13;101752.91;5070512;28;20033;-72
2022/10/30 09:59:36;;;;;;;26.15;14.10;;;;;;;24.42;52.66;101751.53;5072335;28;20033;-71
2022/10/30 10:02:45;;;;;;;24.27;13.70;;;;;;;24.45;52.48;101747.38;5070047;28;20079;-71
2022/10/30 10:05:26;;;;;;;29.67;13.50;;;;;;;24.58;52.45;101748.56;5078053;28;20062;-72
2022/10/30 10:07:57;;;;;;;22.27;12.88;;;;;;;24.26;53.74;101752.84;5084798;28;20043;-72
2022/10/30 10:10:38;;;;;;;26.33;12.82;;;;;;;24.61;52.88;101742.50;5086973;28;20036;-72
2022/10/30 10:13:08;;;;;;;24.33;13.23;;;;;;;24.78;52.43;101740.91;5081699;28;20025;-72
2022/10/30 10:15:50;;;;;;;28.75;13.88;;;;;;;25.08;51.74;101745.09;5066479;28;20033;-72
2022/10/30 10:18:32;;;;;;;27.10;12.15;;;;;;;25.06;51.85;101750.09;5066692;28;20063;-73
2022/10/30 10:21:04;;;;;;;27.25;14.02;;;;;;;25.03;51.94;101746.00;5070897;28;20048;-72
2022/10/30 10:23:38;;;;;;;25.00;13.93;;;;;;;25.02;51.96;101749.84;5080380;28;20028;-72
2022/10/30 10:26:17;;;;;;;28.42;12.38;;;;;;;25.07;51.66;101752.53;5074757;28;20036;-72
2022/10/30 10:28:55;;;;;;;26.23;13.13;;;;;;;25.01;51.64;101756.47;5074196;28;20024;-72
2022/10/30 10:31:38;;;;;;;29.00;12.70;;;;;;;25.33;50.69;101747.41;5086639;28;20068;-73
2022/10/30 10:34:31;;;;;;;22.55;11.25;;;;;;;25.49;50.26;101753.50;5086592;28;20444;-72
2022/10/30 10:37:09;;;;;;;25.80;13.15;;;;;;;25.24;51.34;101763.78;5082006;28;20495;-72
2022/10/30 10:40:11;;;;;;;20.38;12.20;;;;;;;25.29;51.33;101762.91;5078456;28;20047;-72
2022/10/30 10:43:02;;;;;;;23.05;11.82;;;;;;;25.19;51.42;101760.31;5075868;28;20458;-73
2022/10/30 10:45:53;;;;;;;31.83;13.45;;;;;;;25.03;51.85;101762.50;5074797;28;20032;-72
2022/10/30 10:48:44;;;;;;;34.50;14.30;;;;;;;25.25;51.92;101759.13;5019316;28;20059;-72
2022/10/30 10:51:16;;;;;;;32.90;12.63;;;;;;;25.56;51.26;101753.91;5022604;28;20065;-72
2022/10/30 10:53:58;;;;;;;33.17;14.00;;;;;;;25.83;50.66;101754.78;5022601;28;20087;-73
2022/10/30 10:56:31;;;;;;;25.88;12.20;;;;;;;25.60;50.87;101750.25;5022247;28;20634;-73
2022/10/30 10:59:02;;;;;;;28.15;13.60;;;;;;;25.90;50.45;101755.19;5023003;28;20041;-72
2022/10/30 11:01:37;;;;;;;30.38;12.98;;;;;;;26.02;50.75;101749.97;5020914;28;20679;-72
2022/10/30 11:04:10;;;;;;;23.50;12.93;;;;;;;26.15;50.60;101750.31;5022168;28;20063;-73
2022/10/30 11:06:39;;;;;;;21.27;12.02;;;;;;;26.51;49.70;101746.50;5021950;28;20515;-71
2022/10/30 11:09:18;;;;;;;33.40;12.10;;;;;;;26.36;49.85;101746.81;5021957;28;20037;-71
2022/10/30 11:11:48;;;;;;;23.10;11.32;;;;;;;26.67;48.96;101750.53;5021607;28;20045;-72
2022/10/30 11:14:16;;;;;;;24.15;10.70;;;;;;;26.75;48.53;101743.50;5023244;28;20032;-71
2022/10/30 11:16:49;;;;;;;18.70;10.43;;;;;;;26.74;47.80;101742.69;5020960;28;20091;-71